createdAt,value
2017-12-30T00:01:19.254Z,192.93
2017-12-30T00:06:32.089Z,184.93
2017-12-30T00:08:58.847Z,184.63
2017-12-30T00:11:26.567Z,179.73
2017-12-30T00:13:53.315Z,184.40
2017-12-30T00:16:21.017Z,157.83
2017-12-30T00:19:00.250Z,173.77
2017-12-30T00:21:39.712Z,181.20
2017-12-30T00:24:20.259Z,174.13
2017-12-30T00:26:52.759Z,166.07
2017-12-30T00:29:24.149Z,162.00
2017-12-30T00:31:52.898Z,179.90
2017-12-30T00:34:33.820Z,199.03
2017-12-30T00:37:01.529Z,192.47
2017-12-30T00:39:29.263Z,195.43
2017-12-30T00:41:56.035Z,163.37
2017-12-30T00:44:34.412Z,178.17
2017-12-30T00:47:04.250Z,169.70
2017-12-30T00:49:31.923Z,169.57
2017-12-30T00:51:59.139Z,155.30
2017-12-30T00:54:30.316Z,149.73
2017-12-30T00:56:59.103Z,138.10
2017-12-30T01:02:27.163Z,178.23
2017-12-30T01:07:39.808Z,183.63
2017-12-30T01:10:11.691Z,201.37
2017-12-30T01:15:25.489Z,170.27
2017-12-30T01:17:54.195Z,161.67
2017-12-30T01:20:25.472Z,152.47
2017-12-30T01:22:54.303Z,141.00
2017-12-30T01:28:08.131Z,148.53
2017-12-30T01:30:43.110Z,130.67
2017-12-30T01:35:57.671Z,131.63
2017-12-30T01:38:43.841Z,143.33
2017-12-30T01:41:11.607Z,147.03
2017-12-30T01:43:43.161Z,145.83
2017-12-30T01:46:09.855Z,161.83
2017-12-30T01:48:44.931Z,164.47
2017-12-30T01:51:13.601Z,160.77
2017-12-30T01:53:59.556Z,149.57
2017-12-30T01:56:41.127Z,173.43
2017-12-30T01:59:21.756Z,172.20
2017-12-30T02:01:52.015Z,177.10
2017-12-30T02:07:05.097Z,162.57
2017-12-30T02:09:37.555Z,163.10
2017-12-30T02:14:54.063Z,169.10
2017-12-30T02:17:32.529Z,187.33
2017-12-30T02:22:49.703Z,182.57
2017-12-30T02:25:33.387Z,190.57
2017-12-30T02:28:07.493Z,214.00
2017-12-30T02:33:31.801Z,214.13
2017-12-30T02:35:59.578Z,211.37
2017-12-30T02:38:40.921Z,204.80
2017-12-30T02:41:12.231Z,202.03
2017-12-30T02:43:40.953Z,192.90
2017-12-30T02:46:07.719Z,187.80
2017-12-30T02:48:34.558Z,188.70
2017-12-30T02:51:01.342Z,184.40
2017-12-30T02:53:28.405Z,189.43
2017-12-30T02:55:55.161Z,176.53
2017-12-30T02:58:21.911Z,194.73
2017-12-30T03:00:48.591Z,183.17
2017-12-30T03:03:15.357Z,176.10
2017-12-30T03:05:42.071Z,192.37
2017-12-30T03:08:12.626Z,190.90
2017-12-30T03:13:37.307Z,177.43
2017-12-30T03:16:08.477Z,193.43
2017-12-30T03:18:42.665Z,185.50
2017-12-30T03:21:14.607Z,193.97
2017-12-30T03:23:43.421Z,170.90
2017-12-30T03:26:10.135Z,147.17
2017-12-30T03:28:43.737Z,140.97
2017-12-30T03:31:10.461Z,153.57
2017-12-30T03:33:47.673Z,151.20
2017-12-30T03:36:14.385Z,151.60
2017-12-30T03:38:42.149Z,134.80
2017-12-30T03:41:08.967Z,131.33
2017-12-30T03:43:41.056Z,121.77
2017-12-30T03:49:06.181Z,111.93
2017-12-30T03:51:51.745Z,114.83
2017-12-30T03:54:35.896Z,110.40
2017-12-30T03:57:07.333Z,103.40
2017-12-30T03:59:49.233Z,104.17
2017-12-30T04:02:21.939Z,94.87
2017-12-30T04:05:03.647Z,116.67
2017-12-30T04:10:29.693Z,97.40
2017-12-30T04:13:10.250Z,82.23
2017-12-30T04:15:47.121Z,84.10
2017-12-30T04:18:13.896Z,88.27
2017-12-30T04:20:44.438Z,85.73
2017-12-30T04:23:13.140Z,91.60
2017-12-30T04:25:39.907Z,96.50
2017-12-30T04:28:07.623Z,96.40
2017-12-30T04:30:35.391Z,90.53
2017-12-30T04:33:03.157Z,89.13
2017-12-30T04:35:35.461Z,80.47
2017-12-30T04:38:03.161Z,94.17
2017-12-30T04:40:41.519Z,94.23
2017-12-30T04:43:19.255Z,88.67
2017-12-30T04:45:53.150Z,81.27
2017-12-30T04:48:26.673Z,80.73
2017-12-30T04:50:53.450Z,84.27
2017-12-30T04:53:34.695Z,92.37
2017-12-30T04:56:07.770Z,90.80
2017-12-30T04:58:48.018Z,91.07
2017-12-30T05:01:15.746Z,90.07
2017-12-30T05:03:45.619Z,102.50
2017-12-30T05:06:18.363Z,99.03
2017-12-30T05:09:04.081Z,100.97
2017-12-30T05:11:44.747Z,87.63
2017-12-30T05:14:24.308Z,82.97
2017-12-30T05:16:57.116Z,96.37
2017-12-30T05:19:25.865Z,102.37
2017-12-30T05:22:00.034Z,89.53
2017-12-30T05:24:42.186Z,93.07
2017-12-30T05:27:16.354Z,92.80
2017-12-30T05:35:18.954Z,95.00
2017-12-30T05:37:53.454Z,102.73
2017-12-30T05:40:26.129Z,102.13
2017-12-30T05:42:55.001Z,118.27
2017-12-30T05:48:09.187Z,114.50
2017-12-30T05:50:40.961Z,96.83
2017-12-30T05:56:03.686Z,91.83
2017-12-30T05:58:30.480Z,108.00
2017-12-30T06:01:02.438Z,100.57
2017-12-30T06:03:37.077Z,105.10
2017-12-30T06:06:16.405Z,102.77
2017-12-30T06:08:43.185Z,103.83
2017-12-30T06:11:09.912Z,101.10
2017-12-30T06:13:38.665Z,100.00
2017-12-30T06:16:17.381Z,89.67
2017-12-30T06:19:02.306Z,82.23
2017-12-30T06:24:15.805Z,82.33
2017-12-30T06:26:54.235Z,83.30
2017-12-30T06:29:31.851Z,74.53
2017-12-30T06:31:58.625Z,68.50
2017-12-30T06:34:26.338Z,65.87
2017-12-30T06:37:04.506Z,67.30
2017-12-30T06:42:24.721Z,65.23
2017-12-30T06:45:03.392Z,58.97
2017-12-30T06:50:16.398Z,68.37
2017-12-30T06:52:44.130Z,71.40
2017-12-30T06:55:10.844Z,67.60
2017-12-30T06:57:37.574Z,78.40
2017-12-30T07:00:08.659Z,79.97
2017-12-30T07:02:48.097Z,70.03
2017-12-30T07:05:14.844Z,64.13
2017-12-30T07:07:41.575Z,68.83
2017-12-30T07:10:20.010Z,61.37
2017-12-30T07:12:46.722Z,69.77
2017-12-30T07:15:13.434Z,73.60
2017-12-30T07:17:50.892Z,71.63
2017-12-30T07:20:28.340Z,78.60
2017-12-30T07:22:58.294Z,69.90
2017-12-30T07:25:25.975Z,83.17
2017-12-30T07:27:52.678Z,77.73
2017-12-30T07:30:22.978Z,75.13
2017-12-30T07:32:56.908Z,74.87
2017-12-30T07:35:28.579Z,68.70
2017-12-30T07:37:56.112Z,59.77
2017-12-30T07:40:22.841Z,60.93
2017-12-30T07:42:49.632Z,62.27
2017-12-30T07:48:10.182Z,61.83
2017-12-30T07:50:36.932Z,64.23
2017-12-30T07:55:49.686Z,63.87
2017-12-30T07:58:17.318Z,69.80
2017-12-30T08:00:52.865Z,62.30
2017-12-30T08:03:20.579Z,71.43
2017-12-30T08:08:43.672Z,67.40
2017-12-30T08:11:11.382Z,69.17
2017-12-30T08:13:45.646Z,71.83
2017-12-30T08:16:17.180Z,73.97
2017-12-30T08:19:00.251Z,76.97
2017-12-30T08:21:33.258Z,78.50
2017-12-30T08:24:02.024Z,71.03
2017-12-30T08:26:31.882Z,70.37
2017-12-30T08:28:59.578Z,68.40
2017-12-30T08:31:33.782Z,83.70
2017-12-30T08:34:04.828Z,70.40
2017-12-30T08:36:31.512Z,66.87
2017-12-30T08:41:44.682Z,71.23
2017-12-30T08:44:11.394Z,57.40
2017-12-30T08:46:48.044Z,57.83
2017-12-30T08:49:18.886Z,61.30
2017-12-30T08:54:36.894Z,57.73
2017-12-30T08:59:55.588Z,53.20
2017-12-30T09:02:34.114Z,54.50
2017-12-30T09:05:00.888Z,57.43
2017-12-30T09:07:27.556Z,54.97
2017-12-30T09:09:54.258Z,55.77
2017-12-30T09:12:21.210Z,59.87
2017-12-30T09:14:47.908Z,55.53
2017-12-30T09:17:14.594Z,54.47
2017-12-30T09:19:41.326Z,58.07
2017-12-30T09:22:08.074Z,56.63
2017-12-30T09:24:34.796Z,61.20
2017-12-30T09:27:01.542Z,67.47
2017-12-30T09:29:28.324Z,54.10
2017-12-30T09:31:55.354Z,60.40
2017-12-30T09:34:22.079Z,65.93
2017-12-30T09:36:55.556Z,64.30
2017-12-30T09:39:22.322Z,70.63
2017-12-30T09:41:58.934Z,74.07
2017-12-30T09:44:42.140Z,64.37
2017-12-30T09:47:08.843Z,79.47
2017-12-30T09:49:43.600Z,81.10
2017-12-30T09:52:10.284Z,90.33
2017-12-30T09:54:36.986Z,89.67
2017-12-30T09:57:17.875Z,94.53
2017-12-30T09:59:49.066Z,84.97
2017-12-30T10:02:17.802Z,90.10
2017-12-30T10:04:44.504Z,82.80
2017-12-30T10:07:11.189Z,88.07
2017-12-30T10:09:52.511Z,79.93
2017-12-30T10:12:19.949Z,84.63
2017-12-30T10:14:48.668Z,92.33
2017-12-30T10:17:15.394Z,105.20
2017-12-30T10:19:42.123Z,106.00
2017-12-30T10:22:08.803Z,115.67
2017-12-30T10:24:35.551Z,111.93
2017-12-30T10:27:11.083Z,91.43
2017-12-30T10:32:23.686Z,95.83
2017-12-30T10:35:01.359Z,110.10
2017-12-30T10:40:13.440Z,101.60
2017-12-30T10:42:40.143Z,106.70
2017-12-30T10:45:06.871Z,101.30
2017-12-30T10:47:39.046Z,91.90
2017-12-30T10:52:51.911Z,90.07
2017-12-30T10:55:19.635Z,80.70
2017-12-30T10:58:03.127Z,85.63
2017-12-30T11:00:44.661Z,95.77
2017-12-30T11:03:11.382Z,101.40
2017-12-30T11:05:43.721Z,103.03
2017-12-30T11:08:10.404Z,94.40
2017-12-30T11:10:46.829Z,82.10
2017-12-30T11:13:13.528Z,84.93
2017-12-30T11:15:40.234Z,100.33
2017-12-30T11:18:06.991Z,90.57
2017-12-30T11:23:22.752Z,65.07
2017-12-30T11:25:49.482Z,41.93
2017-12-30T11:28:16.186Z,42.27
2017-12-30T11:30:42.916Z,34.17
2017-12-30T11:33:09.624Z,30.30
2017-12-30T11:38:23.410Z,31.40
2017-12-30T11:40:50.184Z,30.97
2017-12-30T11:46:09.004Z,35.47
2017-12-30T11:48:35.708Z,34.57
2017-12-30T11:53:59.150Z,39.40
2017-12-30T11:56:33.890Z,33.87
2017-12-30T11:59:01.543Z,25.33
2017-12-30T12:01:28.247Z,26.37
2017-12-30T12:04:13.523Z,19.53
2017-12-30T12:06:40.228Z,19.63
2017-12-30T12:09:07.916Z,22.67
2017-12-30T12:11:35.458Z,27.17
2017-12-30T12:14:02.154Z,23.17
2017-12-30T12:16:28.893Z,26.63
2017-12-30T12:19:06.416Z,29.93
2017-12-30T12:21:33.298Z,20.63
2017-12-30T12:23:59.994Z,31.70
2017-12-30T12:26:31.346Z,30.13
2017-12-30T12:28:58.096Z,30.13
2017-12-30T12:31:42.040Z,28.93
2017-12-30T12:37:02.574Z,29.73
2017-12-30T12:39:33.370Z,30.63
2017-12-30T12:42:00.095Z,32.50
2017-12-30T12:44:33.278Z,45.07
2017-12-30T12:47:00.038Z,46.57
2017-12-30T12:49:26.714Z,44.03
2017-12-30T12:54:40.644Z,33.17
2017-12-30T12:57:16.628Z,32.70
2017-12-30T12:59:43.332Z,35.70
2017-12-30T13:02:10.027Z,31.50
2017-12-30T13:04:36.844Z,33.03
2017-12-30T13:07:05.505Z,35.53
2017-12-30T13:09:32.207Z,38.73
2017-12-30T13:11:59.250Z,39.77
2017-12-30T13:14:34.107Z,36.20
2017-12-30T13:17:00.849Z,36.03
2017-12-30T13:19:27.646Z,33.37
2017-12-30T13:22:11.008Z,35.50
2017-12-30T13:24:37.762Z,41.27
2017-12-30T13:27:04.447Z,34.43
2017-12-30T13:29:35.005Z,38.30
2017-12-30T13:32:01.687Z,40.13
2017-12-30T13:34:34.026Z,34.10
2017-12-30T13:37:00.746Z,33.33
2017-12-30T13:39:27.490Z,38.77
2017-12-30T13:41:54.191Z,33.23
2017-12-30T13:44:20.923Z,41.70
2017-12-30T13:46:47.616Z,34.23
2017-12-30T13:49:14.319Z,40.60
2017-12-30T13:51:49.625Z,46.17
2017-12-30T13:54:16.392Z,48.57
2017-12-30T13:59:40.927Z,47.70
2017-12-30T14:02:13.829Z,52.07
2017-12-30T14:04:40.584Z,55.93
2017-12-30T14:07:14.033Z,55.97
2017-12-30T14:09:40.763Z,54.47
2017-12-30T14:12:07.443Z,58.87
2017-12-30T14:14:34.194Z,48.53
2017-12-30T14:17:00.887Z,60.73
2017-12-30T14:19:27.597Z,55.90
2017-12-30T14:22:05.570Z,58.20
2017-12-30T14:24:32.251Z,61.40
2017-12-30T14:26:58.935Z,58.67
2017-12-30T14:29:26.383Z,58.77
2017-12-30T14:31:53.339Z,64.37
2017-12-30T14:34:20.047Z,67.60
2017-12-30T14:36:46.820Z,73.20
2017-12-30T14:39:13.533Z,72.17
2017-12-30T14:41:40.225Z,71.37
2017-12-30T14:44:06.970Z,76.87
2017-12-30T14:46:33.652Z,70.97
2017-12-30T14:49:00.347Z,79.93
2017-12-30T14:51:27.070Z,81.23
2017-12-30T14:54:08.186Z,78.57
2017-12-30T14:56:34.913Z,69.57
2017-12-30T14:59:02.135Z,69.67
2017-12-30T15:01:28.823Z,68.93
2017-12-30T15:03:55.547Z,71.60
2017-12-30T15:06:22.241Z,68.03
2017-12-30T15:08:49.300Z,71.70
2017-12-30T15:11:16.037Z,77.10
2017-12-30T15:13:43.595Z,78.37
2017-12-30T15:16:10.278Z,77.67
2017-12-30T15:18:36.995Z,76.37
2017-12-30T15:21:03.699Z,80.43
2017-12-30T15:23:30.615Z,80.87
2017-12-30T15:25:57.395Z,79.53
2017-12-30T15:28:24.071Z,85.17
2017-12-30T15:30:50.761Z,87.43
2017-12-30T15:33:17.483Z,92.83
2017-12-30T15:35:44.161Z,93.30
2017-12-30T15:38:10.849Z,90.73
2017-12-30T15:40:37.615Z,90.47
2017-12-30T15:43:04.293Z,80.13
2017-12-30T15:45:31.041Z,71.63
2017-12-30T15:47:57.807Z,69.97
2017-12-30T15:50:24.790Z,80.97
2017-12-30T15:52:51.486Z,77.17
2017-12-30T15:55:18.223Z,74.03
2017-12-30T15:57:44.911Z,71.00
2017-12-30T16:00:11.606Z,75.20
2017-12-30T16:02:41.937Z,77.53
2017-12-30T16:05:09.677Z,73.53
2017-12-30T16:07:36.363Z,73.33
2017-12-30T16:10:03.099Z,69.37
2017-12-30T16:12:29.785Z,72.87
2017-12-30T16:14:56.482Z,68.83
2017-12-30T16:17:23.227Z,75.90
2017-12-30T16:19:49.909Z,79.87
2017-12-30T16:22:16.660Z,73.27
2017-12-30T16:24:43.431Z,91.80
2017-12-30T16:27:10.121Z,82.70
2017-12-30T16:29:36.875Z,80.83
2017-12-30T16:32:03.621Z,76.40
2017-12-30T16:34:30.319Z,71.47
2017-12-30T16:37:09.533Z,69.43
2017-12-30T16:39:36.214Z,72.17
2017-12-30T16:42:02.902Z,58.03
2017-12-30T16:44:31.651Z,63.97
2017-12-30T16:46:58.421Z,59.73
2017-12-30T16:49:25.097Z,61.37
2017-12-30T16:51:51.908Z,59.33
2017-12-30T16:54:18.657Z,63.30
2017-12-30T16:56:45.347Z,66.40
2017-12-30T16:59:12.085Z,70.00
2017-12-30T17:01:38.792Z,68.87
2017-12-30T17:04:05.480Z,73.97
2017-12-30T17:06:32.258Z,65.87
2017-12-30T17:08:58.957Z,68.30
2017-12-30T17:11:25.694Z,73.57
2017-12-30T17:13:52.428Z,75.43
2017-12-30T17:16:19.144Z,74.63
2017-12-30T17:18:45.886Z,78.80
2017-12-30T17:21:12.618Z,70.37
2017-12-30T17:23:39.983Z,62.60
2017-12-30T17:26:06.685Z,70.50
2017-12-30T17:28:33.421Z,71.10
2017-12-30T17:31:10.991Z,60.67
2017-12-30T17:33:37.743Z,58.60
2017-12-30T17:36:04.496Z,56.57
2017-12-30T17:38:31.210Z,61.03
2017-12-30T17:41:04.000Z,61.37
2017-12-30T17:43:30.687Z,62.57
2017-12-30T17:45:57.387Z,59.73
2017-12-30T17:48:25.016Z,56.10
2017-12-30T17:50:51.738Z,53.27
2017-12-30T17:53:18.456Z,57.83
2017-12-30T17:55:45.197Z,52.50
2017-12-30T17:58:11.927Z,48.17
2017-12-30T18:00:38.882Z,47.33
2017-12-30T18:03:05.711Z,54.77
2017-12-30T18:05:32.431Z,56.70
2017-12-30T18:07:59.751Z,54.20
2017-12-30T18:13:12.205Z,59.73
2017-12-30T18:15:38.937Z,53.97
2017-12-30T18:18:05.642Z,60.90
2017-12-30T18:20:32.315Z,70.03
2017-12-30T18:22:59.066Z,68.60
2017-12-30T18:25:25.761Z,81.33
2017-12-30T18:27:52.447Z,80.80
2017-12-30T18:30:20.961Z,84.53
2017-12-30T18:32:47.666Z,80.30
2017-12-30T18:35:14.376Z,81.07
2017-12-30T18:37:41.107Z,83.93
2017-12-30T18:40:07.821Z,71.33
2017-12-30T18:42:34.536Z,63.53
2017-12-30T18:45:01.264Z,65.90
2017-12-30T18:47:27.956Z,64.27
2017-12-30T18:49:54.686Z,54.30
2017-12-30T18:52:21.431Z,58.87
2017-12-30T18:54:48.143Z,64.57
2017-12-30T18:57:23.526Z,58.93
2017-12-30T18:59:50.220Z,62.40
2017-12-30T19:02:16.926Z,62.43
2017-12-30T19:04:43.659Z,58.27
2017-12-30T19:07:10.385Z,60.23
2017-12-30T19:09:38.123Z,58.67
2017-12-30T19:12:04.899Z,64.90
2017-12-30T19:14:32.655Z,69.47
2017-12-30T19:17:00.387Z,77.13
2017-12-30T19:19:27.355Z,77.53
2017-12-30T19:21:57.339Z,77.93
2017-12-30T19:24:24.047Z,71.13
2017-12-30T19:26:51.003Z,73.93
2017-12-30T19:29:17.729Z,83.33
2017-12-30T19:31:44.439Z,72.23
2017-12-30T19:34:11.175Z,76.77
2017-12-30T19:36:37.878Z,83.50
2017-12-30T19:39:04.630Z,80.10
2017-12-30T19:41:32.313Z,86.87
2017-12-30T19:43:59.024Z,82.93
2017-12-30T19:46:25.705Z,86.90
2017-12-30T19:48:52.455Z,73.90
2017-12-30T19:51:19.156Z,66.63
2017-12-30T19:53:45.845Z,58.00
2017-12-30T19:56:12.571Z,62.00
2017-12-30T19:58:39.259Z,54.73
2017-12-30T20:01:05.949Z,47.87
2017-12-30T20:03:32.717Z,52.30
2017-12-30T20:05:59.421Z,51.07
2017-12-30T20:08:26.110Z,58.50
2017-12-30T20:10:52.898Z,56.60
2017-12-30T20:16:10.238Z,51.20
2017-12-30T20:18:36.918Z,60.83
2017-12-30T20:21:03.609Z,57.57
2017-12-30T20:23:30.411Z,50.03
2017-12-30T20:25:57.163Z,46.23
2017-12-30T20:28:23.848Z,46.77
2017-12-30T20:30:51.187Z,44.17
2017-12-30T20:33:17.863Z,43.57
2017-12-30T20:35:45.530Z,46.10
2017-12-30T20:38:12.286Z,46.17
2017-12-30T20:40:38.987Z,40.60
2017-12-30T20:43:05.753Z,42.63
2017-12-30T20:45:32.517Z,39.57
2017-12-30T20:47:59.240Z,39.13
2017-12-30T20:50:26.619Z,42.43
2017-12-30T20:52:53.379Z,40.27
2017-12-30T20:55:20.303Z,38.53
2017-12-30T20:57:47.007Z,38.93
2017-12-30T21:00:13.725Z,36.33
2017-12-30T21:02:40.453Z,42.23
2017-12-30T21:05:07.155Z,37.23
2017-12-30T21:07:33.896Z,43.43
2017-12-30T21:10:00.612Z,38.47
2017-12-30T21:12:27.342Z,44.83
2017-12-30T21:14:54.148Z,45.13
2017-12-30T21:17:21.686Z,59.70
2017-12-30T21:19:49.423Z,69.17
2017-12-30T21:22:16.166Z,80.53
2017-12-30T21:24:42.874Z,77.43
2017-12-30T21:27:23.819Z,94.03
2017-12-30T21:29:50.528Z,75.97
2017-12-30T21:32:17.221Z,76.47
2017-12-30T21:34:44.552Z,80.37
2017-12-30T21:37:11.258Z,84.23
2017-12-30T21:39:37.974Z,96.37
2017-12-30T21:42:04.704Z,104.60
2017-12-30T21:44:31.405Z,103.93
2017-12-30T21:46:58.102Z,106.57
2017-12-30T21:49:25.742Z,97.43
2017-12-30T21:51:52.429Z,91.90
2017-12-30T21:54:19.179Z,98.10
2017-12-30T21:56:45.908Z,102.43
2017-12-30T21:59:14.648Z,104.07
2017-12-30T22:01:41.331Z,102.93
2017-12-30T22:06:55.230Z,91.53
2017-12-30T22:09:30.319Z,96.07
2017-12-30T22:11:57.067Z,104.27
2017-12-30T22:14:24.190Z,106.00
2017-12-30T22:16:50.957Z,103.87
2017-12-30T22:19:17.662Z,92.60
2017-12-30T22:21:44.357Z,85.93
2017-12-30T22:24:17.216Z,75.33
2017-12-30T22:26:43.900Z,67.53
2017-12-30T22:29:10.626Z,69.87
2017-12-30T22:31:48.647Z,70.80
2017-12-30T22:34:15.354Z,72.13
2017-12-30T22:36:45.452Z,71.53
2017-12-30T22:39:22.613Z,61.23
2017-12-30T22:41:49.988Z,66.10
2017-12-30T22:44:21.392Z,60.17
2017-12-30T22:46:48.126Z,67.43
2017-12-30T22:52:00.428Z,71.77
2017-12-30T22:54:28.137Z,79.93
2017-12-30T22:56:54.849Z,76.63
2017-12-30T22:59:21.604Z,70.43
2017-12-30T23:01:48.396Z,67.00
2017-12-30T23:04:16.178Z,62.63
2017-12-30T23:06:50.288Z,56.87
2017-12-30T23:09:16.974Z,49.67
2017-12-30T23:11:58.436Z,57.63
2017-12-30T23:14:28.837Z,57.07
2017-12-30T23:17:04.994Z,55.87
2017-12-30T23:19:48.692Z,56.90
2017-12-30T23:22:15.424Z,52.07
2017-12-30T23:25:01.204Z,48.73
2017-12-30T23:27:42.165Z,54.50
2017-12-30T23:30:26.176Z,51.40
2017-12-30T23:32:52.951Z,41.93
2017-12-30T23:38:20.742Z,42.60
2017-12-30T23:40:48.510Z,38.80
2017-12-30T23:43:16.123Z,32.97
2017-12-30T23:45:43.606Z,31.77
2017-12-30T23:53:49.168Z,30.43
2017-12-30T23:56:15.902Z,30.73
2017-12-30T23:58:53.432Z,35.50
